sensor_id;sensor_type;location;lat;lon;timestamp;P1;durP1;ratioP1;P2;durP2;ratioP2
68633;SDS011;55625;47.072;22.192;2023-04-25T00:01:38;5.85;;;2.10;;
68633;SDS011;55625;47.072;22.192;2023-04-25T00:04:05;5.35;;;2.22;;
68633;SDS011;55625;47.072;22.192;2023-04-25T00:06:31;7.93;;;3.70;;
68633;SDS011;55625;47.072;22.192;2023-04-25T00:09:01;3.85;;;1.95;;
68633;SDS011;55625;47.072;22.192;2023-04-25T00:11:32;6.18;;;2.72;;
68633;SDS011;55625;47.072;22.192;2023-04-25T00:13:59;6.80;;;4.20;;
68633;SDS011;55625;47.072;22.192;2023-04-25T00:16:27;3.93;;;2.13;;
68633;SDS011;55625;47.072;22.192;2023-04-25T00:18:54;2.60;;;1.52;;
68633;SDS011;55625;47.072;22.192;2023-04-25T00:21:20;5.03;;;2.22;;
68633;SDS011;55625;47.072;22.192;2023-04-25T00:23:50;2.72;;;1.25;;
68633;SDS011;55625;47.072;22.192;2023-04-25T00:26:20;3.42;;;1.70;;
68633;SDS011;55625;47.072;22.192;2023-04-25T00:28:46;3.17;;;0.80;;
68633;SDS011;55625;47.072;22.192;2023-04-25T00:31:13;5.80;;;1.83;;
68633;SDS011;55625;47.072;22.192;2023-04-25T00:33:39;3.65;;;1.95;;
68633;SDS011;55625;47.072;22.192;2023-04-25T00:36:05;3.25;;;1.52;;
68633;SDS011;55625;47.072;22.192;2023-04-25T00:38:32;4.15;;;2.30;;
68633;SDS011;55625;47.072;22.192;2023-04-25T00:40:58;3.70;;;2.27;;
68633;SDS011;55625;47.072;22.192;2023-04-25T00:43:25;4.03;;;2.00;;
68633;SDS011;55625;47.072;22.192;2023-04-25T00:45:52;3.33;;;1.73;;
68633;SDS011;55625;47.072;22.192;2023-04-25T00:48:18;3.42;;;2.28;;
68633;SDS011;55625;47.072;22.192;2023-04-25T00:50:51;1.83;;;1.20;;
68633;SDS011;55625;47.072;22.192;2023-04-25T00:53:22;5.40;;;2.35;;
68633;SDS011;55625;47.072;22.192;2023-04-25T00:55:49;2.95;;;1.67;;
68633;SDS011;55625;47.072;22.192;2023-04-25T00:58:16;3.42;;;1.48;;
68633;SDS011;55625;47.072;22.192;2023-04-25T01:00:44;3.90;;;1.65;;
68633;SDS011;55625;47.072;22.192;2023-04-25T01:03:12;3.90;;;2.03;;
68633;SDS011;55625;47.072;22.192;2023-04-25T01:05:41;4.15;;;3.13;;
68633;SDS011;55625;47.072;22.192;2023-04-25T01:08:08;3.88;;;1.80;;
68633;SDS011;55625;47.072;22.192;2023-04-25T01:10:34;4.60;;;1.90;;
68633;SDS011;55625;47.072;22.192;2023-04-25T01:13:01;4.47;;;2.20;;
68633;SDS011;55625;47.072;22.192;2023-04-25T01:15:27;3.63;;;2.37;;
68633;SDS011;55625;47.072;22.192;2023-04-25T01:17:53;5.18;;;1.88;;
68633;SDS011;55625;47.072;22.192;2023-04-25T01:20:23;2.47;;;1.30;;
68633;SDS011;55625;47.072;22.192;2023-04-25T01:22:53;2.90;;;2.25;;
68633;SDS011;55625;47.072;22.192;2023-04-25T01:25:20;3.70;;;2.17;;
68633;SDS011;55625;47.072;22.192;2023-04-25T01:27:47;4.50;;;2.00;;
68633;SDS011;55625;47.072;22.192;2023-04-25T01:30:13;3.92;;;1.80;;
68633;SDS011;55625;47.072;22.192;2023-04-25T01:32:40;3.35;;;2.13;;
68633;SDS011;55625;47.072;22.192;2023-04-25T01:35:07;2.60;;;1.58;;
68633;SDS011;55625;47.072;22.192;2023-04-25T01:37:37;2.97;;;1.88;;
68633;SDS011;55625;47.072;22.192;2023-04-25T01:40:08;5.40;;;2.77;;
68633;SDS011;55625;47.072;22.192;2023-04-25T01:42:37;3.42;;;2.05;;
68633;SDS011;55625;47.072;22.192;2023-04-25T01:45:07;4.13;;;2.60;;
68633;SDS011;55625;47.072;22.192;2023-04-25T01:47:34;2.63;;;1.77;;
68633;SDS011;55625;47.072;22.192;2023-04-25T01:50:00;2.33;;;1.02;;
68633;SDS011;55625;47.072;22.192;2023-04-25T01:52:28;2.73;;;1.30;;
68633;SDS011;55625;47.072;22.192;2023-04-25T01:54:55;3.38;;;1.80;;
68633;SDS011;55625;47.072;22.192;2023-04-25T01:57:24;4.25;;;1.63;;
68633;SDS011;55625;47.072;22.192;2023-04-25T01:59:50;5.87;;;2.17;;
68633;SDS011;55625;47.072;22.192;2023-04-25T02:02:16;3.78;;;2.03;;
68633;SDS011;55625;47.072;22.192;2023-04-25T02:04:42;4.55;;;2.22;;
68633;SDS011;55625;47.072;22.192;2023-04-25T02:07:08;2.30;;;1.67;;
68633;SDS011;55625;47.072;22.192;2023-04-25T02:09:34;3.20;;;1.80;;
68633;SDS011;55625;47.072;22.192;2023-04-25T02:12:00;3.97;;;2.70;;
68633;SDS011;55625;47.072;22.192;2023-04-25T02:14:26;2.70;;;1.60;;
68633;SDS011;55625;47.072;22.192;2023-04-25T02:16:53;6.22;;;3.42;;
68633;SDS011;55625;47.072;22.192;2023-04-25T02:19:19;2.65;;;1.55;;
68633;SDS011;55625;47.072;22.192;2023-04-25T02:21:45;4.45;;;1.92;;
68633;SDS011;55625;47.072;22.192;2023-04-25T02:24:11;4.10;;;2.00;;
68633;SDS011;55625;47.072;22.192;2023-04-25T02:26:37;3.20;;;1.73;;
68633;SDS011;55625;47.072;22.192;2023-04-25T02:29:03;3.05;;;2.25;;
68633;SDS011;55625;47.072;22.192;2023-04-25T02:31:28;3.77;;;1.80;;
68633;SDS011;55625;47.072;22.192;2023-04-25T02:33:54;4.90;;;1.70;;
68633;SDS011;55625;47.072;22.192;2023-04-25T02:36:20;3.45;;;2.20;;
68633;SDS011;55625;47.072;22.192;2023-04-25T02:38:46;5.60;;;2.63;;
68633;SDS011;55625;47.072;22.192;2023-04-25T02:41:12;2.78;;;1.35;;
68633;SDS011;55625;47.072;22.192;2023-04-25T02:43:37;5.47;;;2.13;;
68633;SDS011;55625;47.072;22.192;2023-04-25T02:46:03;5.70;;;1.93;;
68633;SDS011;55625;47.072;22.192;2023-04-25T02:48:29;3.97;;;1.67;;
68633;SDS011;55625;47.072;22.192;2023-04-25T02:50:55;4.30;;;3.03;;
68633;SDS011;55625;47.072;22.192;2023-04-25T02:53:21;5.60;;;1.73;;
68633;SDS011;55625;47.072;22.192;2023-04-25T02:55:47;3.03;;;1.73;;
68633;SDS011;55625;47.072;22.192;2023-04-25T02:58:13;3.38;;;1.60;;
68633;SDS011;55625;47.072;22.192;2023-04-25T03:00:39;2.90;;;1.73;;
68633;SDS011;55625;47.072;22.192;2023-04-25T03:03:05;5.55;;;2.65;;
68633;SDS011;55625;47.072;22.192;2023-04-25T03:05:31;5.55;;;1.77;;
68633;SDS011;55625;47.072;22.192;2023-04-25T03:07:57;4.00;;;2.37;;
68633;SDS011;55625;47.072;22.192;2023-04-25T03:10:23;3.30;;;2.40;;
68633;SDS011;55625;47.072;22.192;2023-04-25T03:12:49;3.05;;;1.98;;
68633;SDS011;55625;47.072;22.192;2023-04-25T03:15:15;4.07;;;3.05;;
68633;SDS011;55625;47.072;22.192;2023-04-25T03:17:41;4.30;;;2.13;;
68633;SDS011;55625;47.072;22.192;2023-04-25T03:20:07;3.25;;;1.92;;
68633;SDS011;55625;47.072;22.192;2023-04-25T03:22:34;3.08;;;2.00;;
68633;SDS011;55625;47.072;22.192;2023-04-25T03:25:00;5.38;;;3.65;;
68633;SDS011;55625;47.072;22.192;2023-04-25T03:27:26;4.37;;;2.03;;
68633;SDS011;55625;47.072;22.192;2023-04-25T03:29:52;6.50;;;2.65;;
68633;SDS011;55625;47.072;22.192;2023-04-25T03:32:17;7.68;;;3.47;;
68633;SDS011;55625;47.072;22.192;2023-04-25T03:34:43;5.17;;;2.87;;
68633;SDS011;55625;47.072;22.192;2023-04-25T03:37:09;2.88;;;1.40;;
68633;SDS011;55625;47.072;22.192;2023-04-25T03:39:35;4.18;;;2.92;;
68633;SDS011;55625;47.072;22.192;2023-04-25T03:42:02;3.25;;;1.95;;
68633;SDS011;55625;47.072;22.192;2023-04-25T03:44:28;4.43;;;2.80;;
68633;SDS011;55625;47.072;22.192;2023-04-25T03:46:54;4.10;;;2.35;;
68633;SDS011;55625;47.072;22.192;2023-04-25T03:49:20;7.32;;;2.50;;
68633;SDS011;55625;47.072;22.192;2023-04-25T03:51:46;3.20;;;1.90;;
68633;SDS011;55625;47.072;22.192;2023-04-25T03:54:11;4.72;;;1.92;;
68633;SDS011;55625;47.072;22.192;2023-04-25T03:56:37;4.88;;;2.42;;
68633;SDS011;55625;47.072;22.192;2023-04-25T03:59:03;4.60;;;2.23;;
68633;SDS011;55625;47.072;22.192;2023-04-25T04:01:29;4.10;;;2.65;;
68633;SDS011;55625;47.072;22.192;2023-04-25T04:03:55;15.77;;;3.10;;
68633;SDS011;55625;47.072;22.192;2023-04-25T04:06:21;4.10;;;2.25;;
68633;SDS011;55625;47.072;22.192;2023-04-25T04:08:47;2.93;;;1.40;;
68633;SDS011;55625;47.072;22.192;2023-04-25T04:11:12;3.88;;;1.75;;
68633;SDS011;55625;47.072;22.192;2023-04-25T04:13:38;3.55;;;2.17;;
68633;SDS011;55625;47.072;22.192;2023-04-25T04:16:04;4.37;;;3.37;;
68633;SDS011;55625;47.072;22.192;2023-04-25T04:18:31;3.10;;;2.33;;
68633;SDS011;55625;47.072;22.192;2023-04-25T04:20:58;4.65;;;2.60;;
68633;SDS011;55625;47.072;22.192;2023-04-25T04:23:24;8.07;;;1.98;;
68633;SDS011;55625;47.072;22.192;2023-04-25T04:25:52;3.65;;;2.03;;
68633;SDS011;55625;47.072;22.192;2023-04-25T04:28:19;3.33;;;2.20;;
68633;SDS011;55625;47.072;22.192;2023-04-25T04:30:46;3.95;;;2.03;;
68633;SDS011;55625;47.072;22.192;2023-04-25T04:33:13;3.42;;;1.65;;
68633;SDS011;55625;47.072;22.192;2023-04-25T04:35:44;3.47;;;2.38;;
68633;SDS011;55625;47.072;22.192;2023-04-25T04:38:12;4.38;;;2.00;;
68633;SDS011;55625;47.072;22.192;2023-04-25T04:40:40;2.50;;;1.73;;
68633;SDS011;55625;47.072;22.192;2023-04-25T04:43:08;3.08;;;2.15;;
68633;SDS011;55625;47.072;22.192;2023-04-25T04:45:36;3.70;;;1.95;;
68633;SDS011;55625;47.072;22.192;2023-04-25T04:48:04;3.85;;;1.83;;
68633;SDS011;55625;47.072;22.192;2023-04-25T04:50:31;4.60;;;2.15;;
68633;SDS011;55625;47.072;22.192;2023-04-25T04:53:01;6.20;;;2.10;;
68633;SDS011;55625;47.072;22.192;2023-04-25T04:55:27;3.80;;;1.15;;
68633;SDS011;55625;47.072;22.192;2023-04-25T04:57:53;2.47;;;1.35;;
68633;SDS011;55625;47.072;22.192;2023-04-25T05:00:19;3.90;;;1.83;;
68633;SDS011;55625;47.072;22.192;2023-04-25T05:02:45;3.13;;;1.37;;
68633;SDS011;55625;47.072;22.192;2023-04-25T05:05:11;2.72;;;1.35;;
68633;SDS011;55625;47.072;22.192;2023-04-25T05:07:37;2.83;;;1.25;;
68633;SDS011;55625;47.072;22.192;2023-04-25T05:10:03;5.93;;;2.63;;
68633;SDS011;55625;47.072;22.192;2023-04-25T05:12:30;3.80;;;1.53;;
68633;SDS011;55625;47.072;22.192;2023-04-25T05:14:56;5.53;;;1.80;;
68633;SDS011;55625;47.072;22.192;2023-04-25T05:17:22;6.60;;;3.17;;
68633;SDS011;55625;47.072;22.192;2023-04-25T05:19:48;4.82;;;1.75;;
68633;SDS011;55625;47.072;22.192;2023-04-25T05:22:13;2.43;;;1.23;;
68633;SDS011;55625;47.072;22.192;2023-04-25T05:24:40;3.65;;;1.67;;
68633;SDS011;55625;47.072;22.192;2023-04-25T05:27:05;4.38;;;1.48;;
68633;SDS011;55625;47.072;22.192;2023-04-25T05:29:31;1.93;;;0.73;;
68633;SDS011;55625;47.072;22.192;2023-04-25T05:31:57;2.08;;;0.85;;
68633;SDS011;55625;47.072;22.192;2023-04-25T05:34:23;2.90;;;1.50;;
68633;SDS011;55625;47.072;22.192;2023-04-25T05:36:49;1.60;;;0.50;;
68633;SDS011;55625;47.072;22.192;2023-04-25T05:39:15;2.78;;;1.35;;
68633;SDS011;55625;47.072;22.192;2023-04-25T05:41:44;1.67;;;0.80;;
68633;SDS011;55625;47.072;22.192;2023-04-25T05:44:10;1.40;;;0.30;;
68633;SDS011;55625;47.072;22.192;2023-04-25T05:46:35;1.93;;;0.77;;
68633;SDS011;55625;47.072;22.192;2023-04-25T05:49:01;1.73;;;0.95;;
68633;SDS011;55625;47.072;22.192;2023-04-25T05:51:27;2.40;;;0.85;;
68633;SDS011;55625;47.072;22.192;2023-04-25T05:53:53;1.20;;;0.33;;
68633;SDS011;55625;47.072;22.192;2023-04-25T05:56:19;2.72;;;1.23;;
68633;SDS011;55625;47.072;22.192;2023-04-25T05:58:45;1.67;;;0.68;;
68633;SDS011;55625;47.072;22.192;2023-04-25T06:01:11;2.93;;;1.13;;
68633;SDS011;55625;47.072;22.192;2023-04-25T06:03:37;1.48;;;0.80;;
68633;SDS011;55625;47.072;22.192;2023-04-25T06:06:03;2.88;;;1.40;;
68633;SDS011;55625;47.072;22.192;2023-04-25T06:08:29;2.72;;;1.27;;
68633;SDS011;55625;47.072;22.192;2023-04-25T06:10:56;2.67;;;1.33;;
68633;SDS011;55625;47.072;22.192;2023-04-25T06:13:22;2.00;;;0.90;;
68633;SDS011;55625;47.072;22.192;2023-04-25T06:15:48;2.38;;;0.90;;
68633;SDS011;55625;47.072;22.192;2023-04-25T06:18:14;2.00;;;1.15;;
68633;SDS011;55625;47.072;22.192;2023-04-25T06:20:40;5.33;;;1.60;;
68633;SDS011;55625;47.072;22.192;2023-04-25T06:23:05;1.80;;;0.63;;
68633;SDS011;55625;47.072;22.192;2023-04-25T06:25:31;2.63;;;1.30;;
68633;SDS011;55625;47.072;22.192;2023-04-25T06:27:57;2.13;;;1.33;;
68633;SDS011;55625;47.072;22.192;2023-04-25T06:30:23;3.23;;;1.20;;
68633;SDS011;55625;47.072;22.192;2023-04-25T06:32:51;1.60;;;0.80;;
68633;SDS011;55625;47.072;22.192;2023-04-25T06:35:18;3.00;;;1.63;;
68633;SDS011;55625;47.072;22.192;2023-04-25T06:37:44;2.95;;;1.67;;
68633;SDS011;55625;47.072;22.192;2023-04-25T06:40:10;1.97;;;0.80;;
68633;SDS011;55625;47.072;22.192;2023-04-25T06:42:36;2.45;;;1.10;;
68633;SDS011;55625;47.072;22.192;2023-04-25T06:45:02;3.92;;;1.17;;
68633;SDS011;55625;47.072;22.192;2023-04-25T06:47:28;2.90;;;0.95;;
68633;SDS011;55625;47.072;22.192;2023-04-25T06:49:55;2.83;;;0.87;;
68633;SDS011;55625;47.072;22.192;2023-04-25T06:52:20;2.40;;;1.10;;
68633;SDS011;55625;47.072;22.192;2023-04-25T06:54:46;1.55;;;0.60;;
68633;SDS011;55625;47.072;22.192;2023-04-25T06:57:12;2.42;;;1.33;;
68633;SDS011;55625;47.072;22.192;2023-04-25T06:59:38;1.97;;;0.57;;
68633;SDS011;55625;47.072;22.192;2023-04-25T07:02:04;1.70;;;0.93;;
68633;SDS011;55625;47.072;22.192;2023-04-25T07:04:31;5.05;;;1.80;;
68633;SDS011;55625;47.072;22.192;2023-04-25T07:06:56;2.42;;;1.10;;
68633;SDS011;55625;47.072;22.192;2023-04-25T07:09:23;3.37;;;2.27;;
68633;SDS011;55625;47.072;22.192;2023-04-25T07:11:49;3.25;;;1.67;;
68633;SDS011;55625;47.072;22.192;2023-04-25T07:14:14;2.20;;;0.75;;
68633;SDS011;55625;47.072;22.192;2023-04-25T07:16:40;5.33;;;1.70;;
68633;SDS011;55625;47.072;22.192;2023-04-25T07:19:06;2.05;;;0.80;;
68633;SDS011;55625;47.072;22.192;2023-04-25T07:21:32;3.03;;;1.15;;
68633;SDS011;55625;47.072;22.192;2023-04-25T07:23:59;1.80;;;0.90;;
68633;SDS011;55625;47.072;22.192;2023-04-25T07:26:24;1.80;;;0.70;;
68633;SDS011;55625;47.072;22.192;2023-04-25T07:28:50;2.00;;;0.77;;
68633;SDS011;55625;47.072;22.192;2023-04-25T07:31:17;2.00;;;0.50;;
68633;SDS011;55625;47.072;22.192;2023-04-25T07:33:45;2.13;;;1.05;;
68633;SDS011;55625;47.072;22.192;2023-04-25T07:36:11;3.97;;;1.83;;
68633;SDS011;55625;47.072;22.192;2023-04-25T07:38:38;2.35;;;0.98;;
68633;SDS011;55625;47.072;22.192;2023-04-25T07:41:04;1.42;;;0.60;;
68633;SDS011;55625;47.072;22.192;2023-04-25T07:43:30;2.58;;;1.27;;
68633;SDS011;55625;47.072;22.192;2023-04-25T07:45:56;3.33;;;0.93;;
68633;SDS011;55625;47.072;22.192;2023-04-25T07:48:22;1.70;;;0.60;;
68633;SDS011;55625;47.072;22.192;2023-04-25T07:50:48;2.05;;;0.73;;
68633;SDS011;55625;47.072;22.192;2023-04-25T07:53:14;1.90;;;0.98;;
68633;SDS011;55625;47.072;22.192;2023-04-25T07:55:42;3.37;;;1.63;;
68633;SDS011;55625;47.072;22.192;2023-04-25T07:58:09;1.95;;;0.88;;
68633;SDS011;55625;47.072;22.192;2023-04-25T08:00:36;3.40;;;1.50;;
68633;SDS011;55625;47.072;22.192;2023-04-25T08:03:02;2.13;;;0.88;;
68633;SDS011;55625;47.072;22.192;2023-04-25T08:05:29;2.65;;;1.38;;
68633;SDS011;55625;47.072;22.192;2023-04-25T08:07:54;1.97;;;0.87;;
68633;SDS011;55625;47.072;22.192;2023-04-25T08:10:22;3.28;;;1.02;;
68633;SDS011;55625;47.072;22.192;2023-04-25T08:12:48;3.88;;;2.45;;
68633;SDS011;55625;47.072;22.192;2023-04-25T08:15:14;2.50;;;1.15;;
68633;SDS011;55625;47.072;22.192;2023-04-25T08:17:40;3.03;;;1.25;;
68633;SDS011;55625;47.072;22.192;2023-04-25T08:20:06;4.03;;;1.03;;
68633;SDS011;55625;47.072;22.192;2023-04-25T08:22:33;5.40;;;1.88;;
68633;SDS011;55625;47.072;22.192;2023-04-25T08:24:59;2.80;;;1.20;;
68633;SDS011;55625;47.072;22.192;2023-04-25T08:27:25;1.80;;;0.63;;
68633;SDS011;55625;47.072;22.192;2023-04-25T08:29:51;2.47;;;1.07;;
68633;SDS011;55625;47.072;22.192;2023-04-25T08:32:18;3.10;;;1.20;;
68633;SDS011;55625;47.072;22.192;2023-04-25T08:34:44;2.85;;;1.42;;
68633;SDS011;55625;47.072;22.192;2023-04-25T08:37:11;2.80;;;1.38;;
68633;SDS011;55625;47.072;22.192;2023-04-25T08:39:36;2.70;;;1.30;;
68633;SDS011;55625;47.072;22.192;2023-04-25T08:42:05;2.75;;;1.40;;
68633;SDS011;55625;47.072;22.192;2023-04-25T08:44:35;2.47;;;1.15;;
68633;SDS011;55625;47.072;22.192;2023-04-25T08:47:02;2.13;;;0.77;;
68633;SDS011;55625;47.072;22.192;2023-04-25T08:49:32;2.53;;;1.20;;
68633;SDS011;55625;47.072;22.192;2023-04-25T08:52:00;2.70;;;1.30;;
68633;SDS011;55625;47.072;22.192;2023-04-25T08:54:31;2.38;;;1.30;;
68633;SDS011;55625;47.072;22.192;2023-04-25T08:56:59;3.33;;;1.80;;
68633;SDS011;55625;47.072;22.192;2023-04-25T08:59:27;1.65;;;0.65;;
68633;SDS011;55625;47.072;22.192;2023-04-25T09:01:54;2.17;;;0.98;;
68633;SDS011;55625;47.072;22.192;2023-04-25T09:04:20;1.60;;;0.47;;
68633;SDS011;55625;47.072;22.192;2023-04-25T09:06:46;1.90;;;0.77;;
68633;SDS011;55625;47.072;22.192;2023-04-25T09:09:13;1.52;;;0.75;;
68633;SDS011;55625;47.072;22.192;2023-04-25T09:11:39;1.95;;;0.65;;
68633;SDS011;55625;47.072;22.192;2023-04-25T09:14:18;1.85;;;1.05;;
68633;SDS011;55625;47.072;22.192;2023-04-25T09:19:23;2.20;;;0.90;;
68633;SDS011;55625;47.072;22.192;2023-04-25T09:21:55;2.28;;;1.02;;
68633;SDS011;55625;47.072;22.192;2023-04-25T09:27:10;2.13;;;0.80;;
68633;SDS011;55625;47.072;22.192;2023-04-25T09:29:38;3.97;;;1.47;;
68633;SDS011;55625;47.072;22.192;2023-04-25T09:32:10;2.47;;;1.55;;
68633;SDS011;55625;47.072;22.192;2023-04-25T09:34:40;3.63;;;2.38;;
68633;SDS011;55625;47.072;22.192;2023-04-25T09:37:09;1.70;;;0.95;;
68633;SDS011;55625;47.072;22.192;2023-04-25T09:39:36;2.28;;;1.13;;
68633;SDS011;55625;47.072;22.192;2023-04-25T09:42:04;1.83;;;0.90;;
68633;SDS011;55625;47.072;22.192;2023-04-25T09:44:30;5.00;;;0.60;;
68633;SDS011;55625;47.072;22.192;2023-04-25T09:46:56;3.35;;;1.33;;
68633;SDS011;55625;47.072;22.192;2023-04-25T09:49:24;3.53;;;1.60;;
68633;SDS011;55625;47.072;22.192;2023-04-25T09:51:58;1.90;;;0.98;;
68633;SDS011;55625;47.072;22.192;2023-04-25T09:54:25;2.20;;;0.97;;
68633;SDS011;55625;47.072;22.192;2023-04-25T09:56:52;2.95;;;1.58;;
68633;SDS011;55625;47.072;22.192;2023-04-25T09:59:21;2.00;;;1.33;;
68633;SDS011;55625;47.072;22.192;2023-04-25T10:01:48;2.63;;;1.25;;
68633;SDS011;55625;47.072;22.192;2023-04-25T10:04:19;1.80;;;0.88;;
68633;SDS011;55625;47.072;22.192;2023-04-25T10:06:51;2.70;;;1.70;;
68633;SDS011;55625;47.072;22.192;2023-04-25T10:09:20;6.13;;;2.00;;
68633;SDS011;55625;47.072;22.192;2023-04-25T10:11:48;2.42;;;1.42;;
68633;SDS011;55625;47.072;22.192;2023-04-25T10:14:16;2.40;;;0.77;;
68633;SDS011;55625;47.072;22.192;2023-04-25T10:16:43;3.20;;;1.88;;
68633;SDS011;55625;47.072;22.192;2023-04-25T10:19:10;2.03;;;1.07;;
68633;SDS011;55625;47.072;22.192;2023-04-25T10:21:36;1.45;;;0.60;;
68633;SDS011;55625;47.072;22.192;2023-04-25T10:24:13;1.50;;;0.65;;
68633;SDS011;55625;47.072;22.192;2023-04-25T10:26:40;1.98;;;1.33;;
68633;SDS011;55625;47.072;22.192;2023-04-25T10:29:06;1.70;;;0.40;;
68633;SDS011;55625;47.072;22.192;2023-04-25T10:31:32;1.50;;;0.67;;
68633;SDS011;55625;47.072;22.192;2023-04-25T10:33:59;1.40;;;0.52;;
68633;SDS011;55625;47.072;22.192;2023-04-25T10:36:26;1.42;;;0.55;;
68633;SDS011;55625;47.072;22.192;2023-04-25T10:38:58;1.58;;;0.82;;
68633;SDS011;55625;47.072;22.192;2023-04-25T10:41:46;1.27;;;0.37;;
68633;SDS011;55625;47.072;22.192;2023-04-25T10:44:27;2.22;;;1.15;;
68633;SDS011;55625;47.072;22.192;2023-04-25T10:46:54;1.88;;;1.10;;
68633;SDS011;55625;47.072;22.192;2023-04-25T10:52:12;1.58;;;0.60;;
68633;SDS011;55625;47.072;22.192;2023-04-25T11:02:44;2.20;;;0.93;;
68633;SDS011;55625;47.072;22.192;2023-04-25T11:05:34;3.75;;;0.80;;
68633;SDS011;55625;47.072;22.192;2023-04-25T11:08:00;1.93;;;0.67;;
68633;SDS011;55625;47.072;22.192;2023-04-25T11:10:31;1.95;;;0.95;;
68633;SDS011;55625;47.072;22.192;2023-04-25T11:13:00;1.80;;;0.93;;
68633;SDS011;55625;47.072;22.192;2023-04-25T11:15:26;2.72;;;1.90;;
68633;SDS011;55625;47.072;22.192;2023-04-25T11:17:53;1.88;;;1.02;;
68633;SDS011;55625;47.072;22.192;2023-04-25T11:20:20;1.83;;;0.70;;
68633;SDS011;55625;47.072;22.192;2023-04-25T11:22:47;3.13;;;0.93;;
68633;SDS011;55625;47.072;22.192;2023-04-25T11:25:14;1.52;;;0.40;;
68633;SDS011;55625;47.072;22.192;2023-04-25T11:27:54;2.55;;;1.10;;
68633;SDS011;55625;47.072;22.192;2023-04-25T11:30:24;1.98;;;0.68;;
68633;SDS011;55625;47.072;22.192;2023-04-25T11:32:51;1.60;;;0.40;;
68633;SDS011;55625;47.072;22.192;2023-04-25T11:35:18;1.35;;;0.55;;
68633;SDS011;55625;47.072;22.192;2023-04-25T11:37:45;1.70;;;0.70;;
68633;SDS011;55625;47.072;22.192;2023-04-25T11:40:11;2.22;;;0.73;;
68633;SDS011;55625;47.072;22.192;2023-04-25T11:42:37;1.55;;;0.50;;
68633;SDS011;55625;47.072;22.192;2023-04-25T11:45:05;1.57;;;0.70;;
68633;SDS011;55625;47.072;22.192;2023-04-25T11:47:32;0.95;;;0.22;;
68633;SDS011;55625;47.072;22.192;2023-04-25T11:50:08;1.73;;;0.80;;
68633;SDS011;55625;47.072;22.192;2023-04-25T11:52:42;2.67;;;0.63;;
68633;SDS011;55625;47.072;22.192;2023-04-25T11:55:19;1.38;;;0.85;;
68633;SDS011;55625;47.072;22.192;2023-04-25T11:57:46;1.77;;;0.83;;
68633;SDS011;55625;47.072;22.192;2023-04-25T12:00:15;2.28;;;0.68;;
68633;SDS011;55625;47.072;22.192;2023-04-25T12:02:52;1.33;;;0.50;;
68633;SDS011;55625;47.072;22.192;2023-04-25T12:05:21;2.53;;;1.08;;
68633;SDS011;55625;47.072;22.192;2023-04-25T12:07:50;2.25;;;1.23;;
68633;SDS011;55625;47.072;22.192;2023-04-25T12:10:17;3.23;;;1.03;;
68633;SDS011;55625;47.072;22.192;2023-04-25T12:12:44;1.70;;;1.10;;
68633;SDS011;55625;47.072;22.192;2023-04-25T12:15:13;1.67;;;0.90;;
68633;SDS011;55625;47.072;22.192;2023-04-25T12:17:44;1.17;;;0.40;;
68633;SDS011;55625;47.072;22.192;2023-04-25T12:20:18;1.40;;;0.57;;
68633;SDS011;55625;47.072;22.192;2023-04-25T12:22:49;1.80;;;0.50;;
68633;SDS011;55625;47.072;22.192;2023-04-25T12:31:06;1.23;;;0.40;;
68633;SDS011;55625;47.072;22.192;2023-04-25T12:33:34;1.83;;;0.88;;
68633;SDS011;55625;47.072;22.192;2023-04-25T12:36:02;6.70;;;0.70;;
68633;SDS011;55625;47.072;22.192;2023-04-25T12:38:35;1.65;;;0.82;;
68633;SDS011;55625;47.072;22.192;2023-04-25T12:41:06;2.00;;;0.75;;
68633;SDS011;55625;47.072;22.192;2023-04-25T12:43:33;0.90;;;0.20;;
68633;SDS011;55625;47.072;22.192;2023-04-25T12:46:00;1.30;;;0.75;;
68633;SDS011;55625;47.072;22.192;2023-04-25T12:48:26;1.30;;;0.60;;
68633;SDS011;55625;47.072;22.192;2023-04-25T12:50:52;2.30;;;0.60;;
68633;SDS011;55625;47.072;22.192;2023-04-25T12:53:18;0.90;;;0.30;;
68633;SDS011;55625;47.072;22.192;2023-04-25T12:55:46;1.88;;;0.47;;
68633;SDS011;55625;47.072;22.192;2023-04-25T12:58:16;0.90;;;0.20;;
68633;SDS011;55625;47.072;22.192;2023-04-25T13:00:44;1.05;;;0.40;;
68633;SDS011;55625;47.072;22.192;2023-04-25T13:03:10;0.95;;;0.30;;
68633;SDS011;55625;47.072;22.192;2023-04-25T13:05:37;1.45;;;0.45;;
68633;SDS011;55625;47.072;22.192;2023-04-25T13:08:04;1.25;;;0.30;;
68633;SDS011;55625;47.072;22.192;2023-04-25T13:10:30;1.27;;;0.50;;
68633;SDS011;55625;47.072;22.192;2023-04-25T13:12:56;1.10;;;0.47;;
68633;SDS011;55625;47.072;22.192;2023-04-25T13:15:22;1.30;;;0.75;;
68633;SDS011;55625;47.072;22.192;2023-04-25T13:17:48;1.42;;;0.75;;
68633;SDS011;55625;47.072;22.192;2023-04-25T13:20:14;1.50;;;0.53;;
68633;SDS011;55625;47.072;22.192;2023-04-25T13:22:40;0.88;;;0.20;;
68633;SDS011;55625;47.072;22.192;2023-04-25T13:25:07;1.60;;;0.50;;
68633;SDS011;55625;47.072;22.192;2023-04-25T13:27:33;1.35;;;0.70;;
68633;SDS011;55625;47.072;22.192;2023-04-25T13:30:01;0.98;;;0.20;;
68633;SDS011;55625;47.072;22.192;2023-04-25T13:32:38;0.90;;;0.30;;
68633;SDS011;55625;47.072;22.192;2023-04-25T13:35:05;0.95;;;0.30;;
68633;SDS011;55625;47.072;22.192;2023-04-25T13:37:34;1.08;;;0.25;;
68633;SDS011;55625;47.072;22.192;2023-04-25T13:40:05;1.20;;;0.50;;
68633;SDS011;55625;47.072;22.192;2023-04-25T13:42:34;1.25;;;0.30;;
68633;SDS011;55625;47.072;22.192;2023-04-25T13:45:01;1.93;;;0.67;;
68633;SDS011;55625;47.072;22.192;2023-04-25T13:47:28;2.50;;;0.47;;
68633;SDS011;55625;47.072;22.192;2023-04-25T13:49:55;1.25;;;0.63;;
68633;SDS011;55625;47.072;22.192;2023-04-25T13:52:22;1.50;;;0.80;;
68633;SDS011;55625;47.072;22.192;2023-04-25T13:54:51;0.90;;;0.20;;
68633;SDS011;55625;47.072;22.192;2023-04-25T13:57:17;0.97;;;0.33;;
68633;SDS011;55625;47.072;22.192;2023-04-25T13:59:43;0.90;;;0.30;;
68633;SDS011;55625;47.072;22.192;2023-04-25T14:02:09;1.10;;;0.55;;
68633;SDS011;55625;47.072;22.192;2023-04-25T14:04:35;1.27;;;0.63;;
68633;SDS011;55625;47.072;22.192;2023-04-25T14:07:01;0.93;;;0.30;;
68633;SDS011;55625;47.072;22.192;2023-04-25T14:09:28;1.15;;;0.43;;
68633;SDS011;55625;47.072;22.192;2023-04-25T14:11:54;1.30;;;0.55;;
68633;SDS011;55625;47.072;22.192;2023-04-25T14:14:21;1.48;;;0.50;;
68633;SDS011;55625;47.072;22.192;2023-04-25T14:16:48;1.30;;;0.40;;
68633;SDS011;55625;47.072;22.192;2023-04-25T14:19:15;1.20;;;0.60;;
68633;SDS011;55625;47.072;22.192;2023-04-25T14:21:44;1.30;;;0.38;;
68633;SDS011;55625;47.072;22.192;2023-04-25T14:24:11;1.20;;;0.65;;
68633;SDS011;55625;47.072;22.192;2023-04-25T14:26:38;1.20;;;0.68;;
68633;SDS011;55625;47.072;22.192;2023-04-25T14:29:04;1.00;;;0.33;;
68633;SDS011;55625;47.072;22.192;2023-04-25T14:31:31;1.67;;;0.90;;
68633;SDS011;55625;47.072;22.192;2023-04-25T14:33:58;1.20;;;0.55;;
68633;SDS011;55625;47.072;22.192;2023-04-25T14:36:24;1.23;;;0.40;;
68633;SDS011;55625;47.072;22.192;2023-04-25T14:38:51;2.00;;;0.77;;
68633;SDS011;55625;47.072;22.192;2023-04-25T14:41:17;1.00;;;0.30;;
68633;SDS011;55625;47.072;22.192;2023-04-25T14:43:43;1.00;;;0.40;;
68633;SDS011;55625;47.072;22.192;2023-04-25T14:46:10;1.63;;;1.10;;
68633;SDS011;55625;47.072;22.192;2023-04-25T14:48:37;1.33;;;0.57;;
68633;SDS011;55625;47.072;22.192;2023-04-25T14:51:03;3.13;;;0.40;;
68633;SDS011;55625;47.072;22.192;2023-04-25T14:53:30;1.87;;;0.50;;
68633;SDS011;55625;47.072;22.192;2023-04-25T14:55:56;1.27;;;0.30;;